Time;durP1;ratioP1;P1;durP2;ratioP2;P2;SDS_P1;SDS_P2;PMS_P1;PMS_P2;Temp;Humidity;BMP_temperature;BMP_pressure;BME280_temperature;BME280_humidity;BME280_pressure;Samples;Min_cycle;Max_cycle;Signal;HPM_P1;HPM_P2
2023/05/08 00:00:24;;;;;;;19.83;9.73;;;3.40;99.90;;;;;;5013834;28;20184;-85
2023/05/08 00:02:56;;;;;;;14.03;8.20;;;3.70;99.90;;;;;;5014058;28;20180;-84
2023/05/08 00:05:22;;;;;;;16.10;8.63;;;3.40;99.90;;;;;;5015522;28;20196;-84
2023/05/08 00:07:49;;;;;;;17.20;7.57;;;3.40;99.90;;;;;;5013087;28;20684;-85
2023/05/08 00:10:15;;;;;;;10.97;7.20;;;3.30;99.90;;;;;;5046018;28;20626;-84
2023/05/08 00:12:41;;;;;;;9.47;5.70;;;3.30;99.90;;;;;;5029587;28;20234;-83
2023/05/08 00:15:07;;;;;;;20.37;8.83;;;5.60;99.90;;;;;;5046701;28;20295;-84
2023/05/08 00:17:33;;;;;;;17.53;8.40;;;3.20;99.90;;;;;;5016247;28;20704;-84
2023/05/08 00:19:58;;;;;;;15.37;9.13;;;3.20;99.90;;;;;;5013955;28;20181;-84
2023/05/08 00:22:24;;;;;;;13.27;7.57;;;3.10;99.90;;;;;;5046002;28;20184;-82
2023/05/08 00:24:50;;;;;;;12.00;5.23;;;3.10;99.90;;;;;;5012823;28;20185;-85
2023/05/08 00:27:15;;;;;;;7.00;3.27;;;3.00;99.90;;;;;;5012871;28;20653;-85
2023/05/08 00:29:41;;;;;;;7.07;3.27;;;3.00;99.90;;;;;;5046206;28;20192;-84
2023/05/08 00:32:07;;;;;;;5.37;3.50;;;2.90;99.90;;;;;;5045897;28;20177;-85
2023/05/08 00:34:33;;;;;;;7.73;4.33;;;2.90;99.90;;;;;;5046126;28;20599;-86
2023/05/08 00:36:59;;;;;;;6.40;4.73;;;3.20;99.90;;;;;;5014408;28;20230;-85
2023/05/08 00:39:25;;;;;;;6.47;4.40;;;2.80;99.90;;;;;;5013486;28;20220;-86
2023/05/08 00:41:50;;;;;;;8.30;4.60;;;2.80;99.90;;;;;;5014108;28;20253;-84
2023/05/08 00:44:16;;;;;;;7.73;4.93;;;4.50;99.90;;;;;;5046519;28;20189;-83
2023/05/08 00:46:43;;;;;;;5.23;3.53;;;2.70;99.90;;;;;;5012793;28;20701;-85
2023/05/08 00:49:11;;;;;;;16.50;5.40;;;;;;;;;;5029363;28;20516;-84
2023/05/08 00:51:38;;;;;;;6.40;4.70;;;2.70;99.90;;;;;;5012780;28;20211;-85
2023/05/08 00:54:04;;;;;;;6.50;5.13;;;;;;;;;;5012513;28;20179;-85
2023/05/08 00:56:33;;;;;;;5.63;4.27;;;2.70;99.90;;;;;;5014089;28;20192;-85
2023/05/08 00:58:59;;;;;;;10.23;3.70;;;2.90;99.90;;;;;;5016249;28;20201;-86
2023/05/08 01:01:27;;;;;;;4.53;3.50;;;2.60;99.90;;;;;;5020439;28;20181;-83
2023/05/08 01:03:52;;;;;;;8.57;3.70;;;2.50;99.90;;;;;;5017704;28;20184;-83
2023/05/08 01:06:18;;;;;;;5.37;4.43;;;2.60;99.90;;;;;;5020451;28;20183;-85
2023/05/08 01:08:44;;;;;;;6.07;3.50;;;2.50;99.90;;;;;;5001091;28;20318;-86
2023/05/08 01:11:36;;;;;;;6.37;3.37;;;2.50;99.90;;;;;;5019226;28;20184;-84
2023/05/08 01:14:26;;;;;;;5.93;3.87;;;2.50;99.90;;;;;;5017531;28;20201;-85
2023/05/08 01:17:19;;;;;;;5.13;3.50;;;2.40;99.90;;;;;;5017003;28;20165;-86
2023/05/08 01:20:08;;;;;;;4.17;2.47;;;2.40;99.90;;;;;;5016021;28;20186;-86
2023/05/08 01:22:58;;;;;;;3.23;2.60;;;2.40;99.90;;;;;;5049191;28;20194;-85
2023/05/08 01:25:45;;;;;;;2.97;2.67;;;2.40;99.90;;;;;;5055821;28;20173;-85
2023/05/08 01:28:33;;;;;;;6.17;3.63;;;2.40;99.90;;;;;;5060993;28;20652;-85
2023/05/08 01:31:30;;;;;;;2.83;2.47;;;2.40;99.90;;;;;;5027268;28;20169;-86
2023/05/08 01:34:05;;;;;;;7.37;2.67;;;2.40;99.90;;;;;;5010995;28;20200;-86
2023/05/08 01:36:58;;;;;;;5.50;2.93;;;2.40;99.90;;;;;;5073789;28;20163;-86
2023/05/08 01:39:41;;;;;;;4.03;2.07;;;2.40;99.90;;;;;;5041349;28;20173;-82
2023/05/08 01:42:15;;;;;;;3.03;2.53;;;2.40;99.90;;;;;;5073969;28;20175;-83
2023/05/08 01:44:48;;;;;;;4.40;3.03;;;2.30;99.90;;;;;;5067669;28;20203;-83
2023/05/08 01:47:16;;;;;;;2.73;2.40;;;2.40;99.90;;;;;;5027810;28;20177;-83
2023/05/08 01:49:46;;;;;;;2.40;2.20;;;2.30;99.90;;;;;;5032042;28;20244;-86
2023/05/08 01:52:41;;;;;;;5.07;2.50;;;3.90;99.90;;;;;;5073612;28;20285;-84
2023/05/08 01:55:30;;;;;;;4.50;2.47;;;2.20;99.90;;;;;;5024420;28;20188;-83
2023/05/08 01:57:57;;;;;;;2.63;2.10;;;2.20;99.90;;;;;;5031314;28;20668;-84
2023/05/08 02:00:26;;;;;;;2.50;2.07;;;2.20;99.90;;;;;;5016851;28;20178;-84
2023/05/08 02:02:54;;;;;;;2.40;2.00;;;3.60;99.90;;;;;;4999289;28;20652;-84
2023/05/08 02:05:25;;;;;;;3.17;2.57;;;2.20;99.90;;;;;;5048260;28;20698;-84
2023/05/08 02:07:51;;;;;;;3.47;2.47;;;2.20;99.90;;;;;;5048034;28;20181;-84
2023/05/08 02:10:21;;;;;;;3.27;2.33;;;2.10;99.90;;;;;;5048246;28;20475;-84
2023/05/08 02:12:48;;;;;;;3.47;2.97;;;2.10;99.90;;;;;;5016580;28;20186;-85
2023/05/08 02:15:16;;;;;;;2.20;2.00;;;2.10;99.90;;;;;;5031683;28;20649;-84
2023/05/08 02:17:44;;;;;;;2.90;2.03;;;4.50;99.90;;;;;;5047361;28;20220;-83
2023/05/08 02:20:13;;;;;;;4.17;2.60;;;3.90;99.90;;;;;;5016348;28;20187;-84
2023/05/08 02:22:45;;;;;;;2.50;1.83;;;2.10;99.90;;;;;;5015808;28;20183;-84
2023/05/08 02:25:13;;;;;;;2.87;2.10;;;2.10;99.90;;;;;;5048814;28;20211;-84
2023/05/08 02:27:42;;;;;;;2.87;2.63;;;2.10;99.90;;;;;;5018444;28;20180;-84
2023/05/08 02:30:13;;;;;;;3.40;2.10;;;2.10;99.90;;;;;;5050235;28;20669;-85
2023/05/08 02:32:42;;;;;;;3.33;2.03;;;2.10;99.90;;;;;;5049799;28;20559;-84
2023/05/08 02:35:10;;;;;;;2.80;2.10;;;2.40;99.90;;;;;;5017042;28;20212;-84
2023/05/08 02:37:37;;;;;;;2.57;1.97;;;2.10;99.90;;;;;;5016966;28;20241;-84
2023/05/08 02:40:05;;;;;;;3.57;2.13;;;2.10;99.90;;;;;;5031589;28;20518;-84
2023/05/08 02:42:32;;;;;;;3.43;2.30;;;;;;;;;;5048687;28;20272;-84
2023/05/08 02:44:57;;;;;;;2.97;2.47;;;2.10;99.90;;;;;;5014889;28;20176;-84
2023/05/08 02:47:28;;;;;;;2.63;2.43;;;4.50;99.90;;;;;;5049045;28;20200;-84
2023/05/08 02:50:03;;;;;;;2.90;2.33;;;2.10;99.90;;;;;;5016576;28;20246;-84
2023/05/08 02:52:38;;;;;;;2.63;2.17;;;2.10;99.90;;;;;;5016732;28;20181;-84
2023/05/08 02:55:10;;;;;;;2.60;2.40;;;2.10;99.90;;;;;;5017095;28;20176;-84
2023/05/08 02:57:45;;;;;;;3.23;1.90;;;2.10;99.90;;;;;;5070984;28;20228;-84
2023/05/08 03:00:17;;;;;;;4.27;2.00;;;1.90;99.90;;;;;;5069418;28;20258;-84
2023/05/08 03:02:56;;;;;;;3.40;2.53;;;2.10;99.90;;;;;;5018970;28;20662;-84
2023/05/08 03:05:34;;;;;;;2.70;2.37;;;2.10;99.90;;;;;;5016567;28;20169;-85
2023/05/08 03:08:04;;;;;;;3.43;2.53;;;2.10;99.90;;;;;;5022851;28;20172;-84
2023/05/08 03:10:32;;;;;;;2.37;1.97;;;2.10;99.90;;;;;;5031880;28;20185;-83
2023/05/08 03:13:01;;;;;;;6.17;2.80;;;2.10;99.90;;;;;;5038453;28;20253;-85
2023/05/08 03:15:45;;;;;;;4.60;2.70;;;2.10;99.90;;;;;;5037695;28;20181;-84
2023/05/08 03:18:16;;;;;;;6.67;3.30;;;2.10;99.90;;;;;;5015197;28;20221;-85
2023/05/08 03:20:45;;;;;;;4.53;2.60;;;2.10;99.90;;;;;;5016777;28;20173;-84
2023/05/08 03:23:12;;;;;;;5.23;3.17;;;2.00;99.90;;;;;;5016795;28;20267;-84
2023/05/08 03:25:41;;;;;;;7.57;2.43;;;2.10;99.90;;;;;;5015672;28;20190;-85
2023/05/08 03:28:09;;;;;;;2.93;2.23;;;2.10;99.90;;;;;;5014810;28;20192;-84
2023/05/08 03:30:37;;;;;;;3.77;2.93;;;2.10;99.90;;;;;;4992989;28;20274;-84
2023/05/08 03:33:04;;;;;;;3.23;2.50;;;2.10;99.90;;;;;;5028168;28;20219;-86
2023/05/08 03:35:32;;;;;;;3.37;2.63;;;2.10;99.90;;;;;;5009116;28;20255;-85
2023/05/08 03:37:58;;;;;;;4.47;2.80;;;;;;;;;;5009923;28;20244;-83
2023/05/08 03:40:24;;;;;;;5.00;2.90;;;2.30;99.90;;;;;;5012481;28;20220;-84
2023/05/08 03:42:50;;;;;;;5.10;2.97;;;;;;;;;;5013053;28;20185;-83
2023/05/08 03:45:18;;;;;;;5.40;2.20;;;2.30;99.90;;;;;;5010990;28;20191;-85
2023/05/08 03:47:44;;;;;;;4.63;2.77;;;;;;;;;;5044056;28;20193;-85
2023/05/08 03:50:10;;;;;;;4.80;2.73;;;;;;;;;;5012059;28;20194;-84
2023/05/08 03:52:37;;;;;;;3.00;2.13;;;2.50;99.90;;;;;;5011251;28;20189;-86
2023/05/08 03:55:03;;;;;;;2.10;1.87;;;2.30;99.90;;;;;;5026185;28;20888;-84
2023/05/08 03:57:38;;;;;;;4.43;3.10;;;2.60;99.90;;;;;;5010626;28;20220;-84
2023/05/08 04:00:21;;;;;;;4.70;2.37;;;2.50;99.90;;;;;;5011636;28;20189;-85
2023/05/08 04:02:55;;;;;;;7.50;2.70;;;2.80;99.90;;;;;;5012355;28;20193;-85
2023/05/08 04:05:33;;;;;;;2.27;2.07;;;2.80;99.90;;;;;;5009991;28;20206;-84
2023/05/08 04:08:07;;;;;;;3.23;2.97;;;2.60;99.90;;;;;;5020596;28;20610;-84
2023/05/08 04:10:44;;;;;;;3.70;2.80;;;3.00;99.90;;;;;;5043196;28;20209;-84
2023/05/08 04:13:14;;;;;;;2.33;2.13;;;3.10;99.90;;;;;;5010675;28;20196;-83
2023/05/08 04:15:59;;;;;;;2.33;2.13;;;3.20;99.90;;;;;;5020504;28;20529;-83
2023/05/08 04:18:28;;;;;;;4.57;2.90;;;3.20;99.90;;;;;;5005646;28;20208;-84
2023/05/08 04:20:56;;;;;;;3.40;2.30;;;3.30;99.90;;;;;;5011847;28;20223;-85
2023/05/08 04:23:22;;;;;;;5.03;2.60;;;;;;;;;;5009828;28;20354;-85
2023/05/08 04:25:51;;;;;;;4.10;2.23;;;3.50;99.90;;;;;;5011124;28;20256;-84
2023/05/08 04:28:18;;;;;;;3.50;2.37;;;;;;;;;;5011094;28;20220;-85
2023/05/08 04:30:45;;;;;;;6.90;2.67;;;;;;;;;;5011298;28;20185;-84
2023/05/08 04:33:12;;;;;;;2.97;2.67;;;3.70;99.90;;;;;;5010314;28;20201;-85
2023/05/08 04:35:38;;;;;;;4.40;2.33;;;;;;;;;;5011175;28;20749;-84
2023/05/08 04:38:04;;;;;;;3.70;2.47;;;;;;;;;;5011190;28;20233;-85
2023/05/08 04:40:33;;;;;;;2.87;2.53;;;3.80;99.90;;;;;;5011018;28;20200;-84
2023/05/08 04:42:59;;;;;;;5.10;3.70;;;;;;;;;;5043861;28;20181;-85
2023/05/08 04:45:24;;;;;;;4.93;3.27;;;4.00;99.90;;;;;;5009153;28;20189;-85
2023/05/08 04:47:50;;;;;;;5.40;2.97;;;4.00;99.90;;;;;;5011811;28;20192;-85
2023/05/08 04:50:16;;;;;;;3.63;2.93;;;4.10;99.90;;;;;;5010681;28;20188;-84
2023/05/08 04:52:41;;;;;;;3.60;2.17;;;4.20;99.90;;;;;;5043534;28;20181;-85
2023/05/08 04:55:08;;;;;;;3.10;2.73;;;4.30;99.90;;;;;;5011012;28;20196;-85
2023/05/08 04:57:33;;;;;;;3.47;2.60;;;4.40;99.90;;;;;;5010681;28;20670;-85
2023/05/08 04:59:59;;;;;;;3.50;2.47;;;5.00;99.90;;;;;;5012020;28;20200;-85
2023/05/08 05:02:25;;;;;;;3.10;2.73;;;4.60;99.90;;;;;;5011226;28;20192;-85
2023/05/08 05:04:51;;;;;;;3.97;2.90;;;4.70;99.90;;;;;;5011296;28;20192;-84
2023/05/08 05:07:17;;;;;;;5.67;3.13;;;;;;;;;;5013105;28;20589;-84
2023/05/08 05:09:43;;;;;;;4.23;2.70;;;5.00;99.90;;;;;;5011974;28;20188;-85
2023/05/08 05:12:09;;;;;;;4.10;2.70;;;5.10;99.90;;;;;;5011402;28;20185;-85
2023/05/08 05:14:35;;;;;;;5.07;2.90;;;;;;;;;;5028198;28;20243;-86
2023/05/08 05:17:00;;;;;;;7.90;3.50;;;5.40;99.90;;;;;;5011802;28;20189;-83
2023/05/08 05:19:26;;;;;;;6.27;3.97;;;5.50;99.90;;;;;;5012909;28;20228;-83
2023/05/08 05:21:52;;;;;;;4.60;2.83;;;5.60;99.90;;;;;;5012649;28;20178;-83
2023/05/08 05:24:17;;;;;;;6.27;3.23;;;5.60;99.90;;;;;;5045037;28;20196;-85
2023/05/08 05:26:43;;;;;;;5.27;2.73;;;5.70;99.90;;;;;;5011858;28;20227;-85
2023/05/08 05:29:09;;;;;;;3.67;2.80;;;5.90;99.90;;;;;;5013107;28;20529;-86
2023/05/08 05:31:35;;;;;;;3.53;2.30;;;6.00;99.90;;;;;;5011666;28;20649;-85
2023/05/08 05:34:00;;;;;;;5.67;3.07;;;6.10;99.90;;;;;;5011484;28;20185;-85
2023/05/08 05:36:26;;;;;;;5.37;2.77;;;;;;;;;;5011348;28;20209;-84
2023/05/08 05:38:52;;;;;;;4.97;2.87;;;;;;;;;;5012683;28;20295;-85
2023/05/08 05:41:18;;;;;;;3.77;2.70;;;;;;;;;;5011667;28;20209;-84
2023/05/08 05:43:44;;;;;;;9.57;2.80;;;6.30;99.90;;;;;;5012449;28;20267;-85
2023/05/08 05:46:10;;;;;;;6.53;2.87;;;;;;;;;;5044247;28;20693;-86
2023/05/08 05:48:36;;;;;;;3.90;2.77;;;6.50;99.90;;;;;;5012525;28;20708;-85
2023/05/08 05:51:02;;;;;;;5.13;2.53;;;6.60;99.90;;;;;;5011839;28;20221;-84
2023/05/08 05:53:28;;;;;;;3.40;2.63;;;6.80;99.90;;;;;;5012751;28;20199;-85
2023/05/08 05:55:53;;;;;;;4.53;2.50;;;6.80;99.90;;;;;;5031206;28;20188;-85
2023/05/08 05:58:19;;;;;;;4.57;3.00;;;7.00;99.90;;;;;;5047641;28;20216;-83
2023/05/08 06:00:46;;;;;;;6.20;2.57;;;7.10;99.90;;;;;;5016045;28;20709;-82
2023/05/08 06:03:12;;;;;;;4.73;2.43;;;7.20;99.90;;;;;;5015862;28;20633;-85
2023/05/08 06:05:39;;;;;;;3.70;2.63;;;7.30;99.90;;;;;;5016207;28;20623;-84
2023/05/08 06:08:06;;;;;;;4.50;2.60;;;7.40;99.90;;;;;;5014911;28;20645;-85
2023/05/08 06:10:31;;;;;;;2.27;1.80;;;7.50;99.90;;;;;;5014459;28;20276;-84
2023/05/08 06:12:57;;;;;;;3.80;2.67;;;7.60;99.90;;;;;;5014576;28;20177;-84
2023/05/08 06:15:23;;;;;;;4.60;2.83;;;7.70;99.90;;;;;;5015510;28;20177;-84
2023/05/08 06:17:49;;;;;;;2.73;2.13;;;;;;;;;;5014741;28;20697;-84
2023/05/08 06:20:15;;;;;;;2.77;1.93;;;;;;;;;;5015566;28;20185;-85
2023/05/08 06:22:41;;;;;;;3.17;2.00;;;7.80;99.90;;;;;;5014531;28;20184;-83
2023/05/08 06:25:08;;;;;;;3.67;1.57;;;8.00;99.90;;;;;;5030970;28;20695;-84
2023/05/08 06:27:34;;;;;;;4.37;2.17;;;8.00;99.90;;;;;;5030685;28;20185;-84
2023/05/08 06:30:00;;;;;;;3.90;1.70;;;8.20;99.90;;;;;;5030980;28;20177;-87
2023/05/08 06:32:26;;;;;;;4.03;1.97;;;8.30;99.90;;;;;;5047146;28;20234;-85
2023/05/08 06:34:52;;;;;;;2.67;1.80;;;8.40;99.90;;;;;;5015518;28;20256;-85
2023/05/08 06:37:17;;;;;;;1.63;1.40;;;8.40;99.90;;;;;;5014587;28;20290;-86
2023/05/08 06:39:43;;;;;;;4.70;2.03;;;8.50;99.90;;;;;;5031845;28;20280;-85
2023/05/08 06:42:09;;;;;;;2.90;1.93;;;8.50;99.90;;;;;;5047976;28;20182;-85
2023/05/08 06:44:35;;;;;;;2.93;1.70;;;8.60;99.90;;;;;;5015788;28;20534;-86
2023/05/08 06:47:01;;;;;;;2.50;1.57;;;8.70;99.90;;;;;;5016803;28;20203;-85
2023/05/08 06:49:26;;;;;;;3.20;2.00;;;8.70;99.90;;;;;;4997999;28;20185;-85
2023/05/08 06:51:52;;;;;;;2.47;1.40;;;8.80;99.90;;;;;;5014696;28;20181;-86
2023/05/08 06:54:18;;;;;;;2.80;1.73;;;8.80;99.90;;;;;;5014950;28;20208;-86
2023/05/08 06:56:44;;;;;;;2.70;1.97;;;8.90;99.90;;;;;;5016062;28;20189;-86
2023/05/08 06:59:10;;;;;;;2.13;1.67;;;9.00;99.90;;;;;;5016473;28;20215;-86
2023/05/08 07:01:36;;;;;;;2.40;1.70;;;9.10;99.90;;;;;;5014552;28;20280;-86
2023/05/08 07:04:02;;;;;;;3.20;1.90;;;9.20;99.90;;;;;;5016225;28;20183;-87
2023/05/08 07:06:29;;;;;;;1.50;1.40;;;9.30;99.90;;;;;;5047976;28;20181;-87
2023/05/08 07:08:55;;;;;;;3.85;1.70;;;9.40;99.90;;;;;;5031609;28;20248;-86
2023/05/08 07:11:21;;;;;;;2.08;1.23;;;9.50;99.90;;;;;;5014451;28;20629;-86
2023/05/08 07:13:47;;;;;;;3.40;1.77;;;9.50;99.90;;;;;;5014328;28;20622;-86
2023/05/08 07:16:13;;;;;;;2.63;1.73;;;9.50;99.90;;;;;;5014007;28;20222;-86
2023/05/08 07:18:39;;;;;;;1.75;1.58;;;9.40;99.90;;;;;;5014435;28;20696;-87
2023/05/08 07:21:04;;;;;;;2.00;1.30;;;9.50;99.90;;;;;;5013871;28;20268;-86
2023/05/08 07:23:30;;;;;;;2.70;1.50;;;9.60;99.90;;;;;;5030038;28;20243;-86
2023/05/08 07:25:56;;;;;;;5.88;1.50;;;9.80;99.90;;;;;;5014000;28;20188;-87
2023/05/08 07:28:22;;;;;;;2.88;1.83;;;9.90;99.90;;;;;;5047201;28;20264;-85
2023/05/08 07:30:48;;;;;;;1.92;1.73;;;;;;;;;;5013585;28;20716;-86
2023/05/08 07:33:14;;;;;;;2.25;1.55;;;10.00;99.90;;;;;;5013653;28;20208;-86
2023/05/08 07:35:40;;;;;;;5.47;1.60;;;9.90;99.90;;;;;;5030526;28;20634;-86
2023/05/08 07:38:06;;;;;;;1.73;1.60;;;10.00;99.90;;;;;;5045873;28;20705;-86
2023/05/08 07:40:31;;;;;;;1.60;1.38;;;9.90;99.90;;;;;;5012922;28;20177;-87
2023/05/08 07:42:57;;;;;;;2.72;1.70;;;10.00;99.90;;;;;;5030644;28;20196;-86
2023/05/08 07:45:23;;;;;;;2.10;1.58;;;10.20;99.90;;;;;;5030103;28;20177;-86
2023/05/08 07:47:53;;;;;;;2.05;1.60;;;10.10;99.90;;;;;;5032735;28;20200;-86
2023/05/08 07:50:20;;;;;;;3.53;1.40;;;10.10;98.80;;;;;;5066461;28;20177;-86
2023/05/08 07:52:47;;;;;;;2.90;1.83;;;10.00;98.70;;;;;;5070546;28;20177;-86
2023/05/08 07:55:12;;;;;;;6.07;1.60;;;10.00;99.30;;;;;;5039025;28;20161;-86
2023/05/08 07:57:40;;;;;;;1.52;1.30;;;10.10;99.90;;;;;;5038275;28;20220;-85
2023/05/08 08:00:07;;;;;;;1.52;1.40;;;10.30;99.80;;;;;;5038788;28;20161;-86
2023/05/08 08:02:33;;;;;;;1.58;1.45;;;10.20;99.50;;;;;;5038498;28;20182;-86
2023/05/08 08:04:59;;;;;;;1.90;1.80;;;10.30;99.90;;;;;;5037222;28;20180;-86
2023/05/08 08:07:25;;;;;;;2.37;1.87;;;10.50;99.90;;;;;;5037749;28;20177;-86
2023/05/08 08:09:50;;;;;;;2.72;1.73;;;10.80;99.90;;;;;;5037282;28;20192;-86
2023/05/08 08:12:16;;;;;;;3.45;1.70;;;10.80;98.60;;;;;;5037586;28;20157;-86
2023/05/08 08:14:42;;;;;;;5.07;2.78;;;10.70;97.50;;;;;;5061106;28;20205;-86
2023/05/08 08:17:07;;;;;;;2.45;1.50;;;10.50;96.80;;;;;;5013327;28;20185;-86
2023/05/08 08:19:33;;;;;;;3.17;1.58;;;10.50;98.10;;;;;;5046095;28;20224;-85
2023/05/08 08:21:59;;;;;;;1.88;1.55;;;10.70;98.30;;;;;;5013586;28;20542;-86
2023/05/08 08:24:25;;;;;;;2.10;1.65;;;10.90;98.20;;;;;;5013569;28;20209;-86
2023/05/08 08:26:50;;;;;;;2.63;1.70;;;11.20;96.90;;;;;;5012836;28;20185;-87
2023/05/08 08:29:16;;;;;;;2.35;1.55;;;11.40;94.70;;;;;;5014886;28;20185;-87
2023/05/08 08:31:42;;;;;;;6.47;1.75;;;11.60;96.30;;;;;;5021245;28;20174;-86
2023/05/08 08:34:07;;;;;;;2.50;1.60;;;11.70;94.40;;;;;;5046366;28;20216;-86
2023/05/08 08:36:33;;;;;;;3.50;1.60;;;11.70;93.80;;;;;;5035312;28;20204;-87
2023/05/08 08:38:59;;;;;;;2.65;1.98;;;11.70;94.00;;;;;;5051263;28;20224;-87
2023/05/08 08:41:26;;;;;;;8.60;1.70;;;11.60;91.90;;;;;;5032557;28;20229;-87
2023/05/08 08:43:53;;;;;;;2.38;1.65;;;11.70;92.80;;;;;;5050209;28;20185;-87
2023/05/08 08:46:25;;;;;;;1.63;1.52;;;11.70;91.60;;;;;;5055022;28;20177;-87
2023/05/08 08:48:54;;;;;;;2.50;1.55;;;11.80;92.20;;;;;;5050668;28;20185;-85
2023/05/08 08:51:31;;;;;;;2.13;1.38;;;11.80;91.20;;;;;;5035728;28;20165;-86
2023/05/08 08:54:15;;;;;;;1.65;1.52;;;12.00;90.50;;;;;;5065678;28;20192;-87
2023/05/08 08:56:43;;;;;;;2.83;1.70;;;11.90;88.10;;;;;;5025850;28;20173;-86
2023/05/08 08:59:10;;;;;;;5.13;2.08;;;11.60;88.10;;;;;;5017212;28;20220;-86
2023/05/08 09:01:39;;;;;;;2.08;1.88;;;11.50;90.40;;;;;;5048989;28;20177;-86
2023/05/08 09:04:05;;;;;;;4.65;1.67;;;11.70;90.70;;;;;;5017659;28;20173;-87
2023/05/08 09:06:34;;;;;;;4.32;1.52;;;12.10;91.20;;;;;;5013763;28;20545;-86
2023/05/08 09:09:00;;;;;;;2.90;1.95;;;12.50;90.90;;;;;;5013119;28;20177;-87
2023/05/08 09:11:27;;;;;;;1.70;1.52;;;12.80;88.60;;;;;;5012128;28;20276;-86
2023/05/08 09:13:54;;;;;;;2.63;2.38;;;12.90;85.90;;;;;;5013469;28;20174;-86
2023/05/08 09:16:21;;;;;;;2.80;1.30;;;13.20;87.20;;;;;;5045369;28;20324;-85
2023/05/08 09:18:47;;;;;;;4.28;1.75;;;13.20;81.50;;;;;;5012930;28;20205;-85
2023/05/08 09:21:13;;;;;;;3.22;1.77;;;13.30;81.00;;;;;;5011880;28;20185;-85
2023/05/08 09:24:00;;;;;;;2.33;1.45;;;13.50;81.50;;;;;;5013983;28;20255;-86
2023/05/08 09:26:31;;;;;;;2.63;1.48;;;13.20;78.80;;;;;;5015301;28;20197;-86
2023/05/08 09:29:14;;;;;;;1.88;1.58;;;13.10;80.40;;;;;;5016133;28;20181;-86
2023/05/08 09:31:42;;;;;;;2.30;1.67;;;12.80;72.50;;;;;;5049167;28;20199;-87
2023/05/08 09:34:10;;;;;;;2.30;1.40;;;12.70;76.60;;;;;;5016947;28;20169;-87
2023/05/08 09:36:38;;;;;;;1.67;1.58;;;12.70;75.60;;;;;;5015148;28;20186;-87
2023/05/08 09:39:09;;;;;;;2.28;1.67;;;12.50;76.80;;;;;;5048642;28;20208;-86
2023/05/08 09:41:34;;;;;;;2.05;1.83;;;12.30;76.60;;;;;;5015659;28;20170;-86
2023/05/08 09:44:05;;;;;;;2.03;1.67;;;12.20;75.70;;;;;;5014988;28;21165;-86
2023/05/08 09:46:35;;;;;;;3.03;1.65;;;11.90;75.30;;;;;;5016432;28;20177;-85
2023/05/08 09:49:03;;;;;;;2.03;1.60;;;11.80;74.80;;;;;;5048060;28;20181;-88
2023/05/08 09:51:31;;;;;;;2.60;2.10;;;11.80;76.60;;;;;;5048543;28;20741;-88
2023/05/08 09:53:58;;;;;;;3.58;1.75;;;12.20;75.40;;;;;;5016480;28;20195;-87
2023/05/08 09:56:38;;;;;;;3.05;2.05;;;12.60;77.30;;;;;;5048236;28;20181;-88
2023/05/08 09:59:20;;;;;;;6.90;1.77;;;13.10;76.80;;;;;;5014604;28;20236;-87
2023/05/08 10:01:47;;;;;;;1.30;1.20;;;13.60;75.80;;;;;;5047870;28;20192;-88
2023/05/08 10:04:14;;;;;;;2.38;1.58;;;13.80;74.40;;;;;;5014831;28;20196;-88
2023/05/08 10:06:40;;;;;;;2.10;1.52;;;14.10;75.50;;;;;;5048133;28;20181;-87
2023/05/08 10:09:12;;;;;;;2.10;1.50;;;14.30;70.70;;;;;;5016068;28;20189;-87
2023/05/08 10:11:40;;;;;;;2.70;1.95;;;14.10;67.70;;;;;;5032545;28;20181;-88
2023/05/08 10:14:06;;;;;;;2.75;1.60;;;13.80;70.50;;;;;;5016915;28;20173;-87
2023/05/08 10:16:40;;;;;;;2.22;1.38;;;13.70;71.50;;;;;;5016955;28;20177;-87
2023/05/08 10:19:14;;;;;;;5.05;1.75;;;13.90;72.30;;;;;;5016221;28;20243;-86
2023/05/08 10:21:43;;;;;;;3.03;1.42;;;14.20;68.80;;;;;;5015685;28;20630;-88
2023/05/08 10:24:32;;;;;;;3.83;1.58;;;14.60;70.70;;;;;;5016800;28;20276;-87
2023/05/08 10:27:16;;;;;;;4.22;1.20;;;14.90;65.20;;;;;;5016530;28;20173;-88
2023/05/08 10:29:58;;;;;;;3.92;1.60;;;15.00;64.60;;;;;;5048778;28;20176;-86
2023/05/08 10:32:27;;;;;;;1.73;1.40;;;14.90;62.00;;;;;;5016506;28;20177;-86
2023/05/08 10:34:57;;;;;;;1.52;1.35;;;14.90;62.70;;;;;;5050336;28;20177;-85
2023/05/08 10:37:23;;;;;;;2.03;1.75;;;14.90;63.90;;;;;;5047625;28;20320;-87
2023/05/08 10:39:50;;;;;;;1.52;1.40;;;14.90;63.10;;;;;;5031259;28;20734;-86
2023/05/08 10:42:17;;;;;;;2.33;1.58;;;15.00;64.80;;;;;;5016589;28;20205;-88
2023/05/08 10:44:43;;;;;;;2.10;1.30;;;15.10;63.70;;;;;;5022189;28;20225;-87
2023/05/08 10:47:32;;;;;;;4.82;1.38;;;14.90;63.90;;;;;;5021663;28;20208;-86
2023/05/08 10:50:15;;;;;;;2.20;1.65;;;14.60;62.40;;;;;;5048789;28;20256;-87
2023/05/08 10:53:02;;;;;;;2.92;1.50;;;14.20;62.80;;;;;;5015478;28;20181;-86
2023/05/08 10:55:35;;;;;;;2.30;1.52;;;13.80;64.90;;;;;;5015753;28;20208;-85
2023/05/08 10:58:13;;;;;;;2.00;1.50;;;13.50;65.00;;;;;;5015247;28;20300;-87
2023/05/08 11:00:51;;;;;;;1.77;1.60;;;13.40;64.60;;;;;;5047442;28;20542;-87
2023/05/08 11:03:18;;;;;;;1.65;1.55;;;13.20;65.30;;;;;;5014115;28;20264;-88
2023/05/08 11:05:46;;;;;;;2.63;1.58;;;13.10;65.60;;;;;;5014013;28;20173;-87
2023/05/08 11:08:17;;;;;;;2.08;1.50;;;13.10;65.90;;;;;;5047015;28;20189;-86
2023/05/08 11:10:48;;;;;;;2.20;1.42;;;13.00;68.00;;;;;;5013683;28;20173;-86
2023/05/08 11:13:14;;;;;;;2.67;1.52;;;12.90;66.70;;;;;;5013164;28;20685;-86
2023/05/08 11:15:48;;;;;;;2.10;1.52;;;12.70;66.10;;;;;;5013629;28;20185;-86
2023/05/08 11:18:16;;;;;;;2.55;1.70;;;12.70;67.60;;;;;;5013491;28;20205;-86
2023/05/08 11:21:05;;;;;;;4.80;2.72;;;13.20;68.80;;;;;;5014967;28;20185;-86
2023/05/08 11:23:35;;;;;;;1.83;1.67;;;13.70;69.10;;;;;;5014598;28;20627;-86
2023/05/08 11:26:03;;;;;;;2.25;1.55;;;14.00;66.60;;;;;;5014425;28;20635;-86
2023/05/08 11:28:55;;;;;;;1.60;1.30;;;13.80;62.40;;;;;;5015833;28;20181;-88
2023/05/08 11:31:22;;;;;;;1.33;1.23;;;13.80;62.20;;;;;;5015596;28;20169;-90
2023/05/08 11:33:48;;;;;;;2.17;1.60;;;13.60;60.70;;;;;;5053906;28;20227;-86
2023/05/08 11:36:14;;;;;;;1.45;1.25;;;13.70;61.70;;;;;;5023750;28;20203;-85
2023/05/08 11:38:42;;;;;;;1.23;1.10;;;13.70;61.60;;;;;;5014746;28;20725;-85
2023/05/08 11:41:21;;;;;;;2.60;1.58;;;14.00;62.50;;;;;;5018601;28;20165;-87
2023/05/08 11:44:01;;;;;;;2.28;1.48;;;14.40;62.40;;;;;;5047563;28;20622;-86
2023/05/08 11:46:53;;;;;;;1.73;1.20;;;14.60;62.60;;;;;;5015221;28;20226;-87
2023/05/08 11:49:24;;;;;;;2.15;1.30;;;14.70;59.80;;;;;;5014586;28;20192;-86
2023/05/08 11:51:54;;;;;;;4.78;1.55;;;14.70;60.90;;;;;;5046241;28;20177;-88
2023/05/08 11:54:21;;;;;;;3.17;1.90;;;14.80;60.10;;;;;;5013014;28;20202;-85
2023/05/08 11:56:52;;;;;;;2.03;1.35;;;14.70;59.90;;;;;;5016639;28;20173;-88
2023/05/08 11:59:19;;;;;;;2.33;1.58;;;14.80;60.20;;;;;;5015615;28;20209;-86
2023/05/08 12:01:47;;;;;;;5.03;1.63;;;14.70;59.70;;;;;;5049965;28;20183;-87
2023/05/08 12:04:13;;;;;;;2.35;1.70;;;14.50;60.00;;;;;;5017030;28;20189;-87
2023/05/08 12:06:40;;;;;;;1.42;1.30;;;14.40;61.00;;;;;;5019498;28;20192;-86
2023/05/08 12:09:16;;;;;;;2.35;1.67;;;14.20;59.90;;;;;;5017108;28;20701;-86
2023/05/08 12:11:44;;;;;;;2.92;1.67;;;14.30;60.00;;;;;;5015172;28;20173;-86
2023/05/08 12:14:11;;;;;;;1.58;1.23;;;14.60;58.30;;;;;;5046334;28;20177;-86
2023/05/08 12:16:38;;;;;;;2.58;1.63;;;15.20;61.20;;;;;;5013904;28;20583;-85
2023/05/08 12:19:09;;;;;;;1.45;1.27;;;15.50;60.30;;;;;;5013103;28;20232;-85
2023/05/08 12:21:36;;;;;;;1.50;1.40;;;15.80;58.00;;;;;;5030158;28;20190;-84
2023/05/08 12:24:10;;;;;;;1.60;1.05;;;15.90;58.50;;;;;;5021695;28;20212;-85
2023/05/08 12:26:36;;;;;;;3.00;1.48;;;16.00;57.80;;;;;;5014360;28;20264;-86
2023/05/08 12:29:06;;;;;;;1.60;1.50;;;15.60;56.10;;;;;;5014077;28;20177;-85
2023/05/08 12:31:36;;;;;;;2.08;1.42;;;15.50;56.70;;;;;;5013869;28;20180;-84
2023/05/08 12:34:05;;;;;;;2.08;1.50;;;15.10;56.30;;;;;;5014048;28;20207;-86
2023/05/08 12:36:37;;;;;;;1.52;1.27;;;14.90;57.60;;;;;;5014291;28;20181;-87
2023/05/08 12:39:13;;;;;;;1.30;1.20;;;14.80;58.40;;;;;;5014113;28;20197;-87
2023/05/08 12:41:50;;;;;;;4.68;1.50;;;14.80;59.20;;;;;;5014297;28;20173;-83
2023/05/08 12:44:22;;;;;;;1.35;1.25;;;15.20;59.40;;;;;;5013498;28;20621;-84
2023/05/08 12:46:53;;;;;;;1.60;1.35;;;15.30;54.10;;;;;;5013675;28;20168;-84
2023/05/08 12:49:27;;;;;;;1.77;1.27;;;15.20;56.40;;;;;;5013289;28;20611;-83
2023/05/08 12:52:14;;;;;;;1.38;1.20;;;14.90;57.30;;;;;;5012289;28;20211;-84
2023/05/08 12:54:47;;;;;;;3.28;1.58;;;14.80;56.30;;;;;;5013883;28;20185;-89
2023/05/08 12:57:18;;;;;;;2.60;1.58;;;14.70;57.10;;;;;;5016089;28;20257;-87
2023/05/08 12:59:44;;;;;;;2.63;1.60;;;14.40;57.50;;;;;;5014370;28;20185;-86
2023/05/08 13:02:18;;;;;;;3.08;1.25;;;14.30;56.70;;;;;;5016464;28;20173;-86
2023/05/08 13:04:44;;;;;;;1.75;1.40;;;14.50;59.60;;;;;;5034837;28;20212;-86
2023/05/08 13:07:10;;;;;;;2.10;1.55;;;15.00;57.40;;;;;;5017274;28;20177;-86
2023/05/08 13:09:36;;;;;;;2.97;1.20;;;15.40;55.00;;;;;;5017598;28;20534;-87